Currently 68°F in Pinon Hills, California, USA
68°F
68°F / 47°F
calm
0.00"
Wednesday, December 13, 2017 2:45 PM PST

Pinon Hills, California Climate Summary
Typical October Day

Normal High:    76.1°F (24.5°C)
Normal Low:    54.3°F (12.4°C)
Average:    64.6°F (18.1°C)

Hour    Temperature    Wind Speed    Humidity
12:00 AM    60°F (15°C)    3 mph    41%
1:00 AM    59°F (15°C)    3 mph    41%
2:00 AM    59°F (15°C)    3 mph    42%
3:00 AM    58°F (15°C)    3 mph    41%
4:00 AM    58°F (14°C)    3 mph    42%
5:00 AM    57°F (14°C)    2 mph    42%
6:00 AM    57°F (14°C)    2 mph    43%
7:00 AM    57°F (14°C)    2 mph    42%
8:00 AM    61°F (16°C)    1 mph    38%
9:00 AM    66°F (19°C)    2 mph    34%
10:00 AM    68°F (20°C)    2 mph    31%
11:00 AM    70°F (21°C)    3 mph    28%
12:00 PM    72°F (22°C)    3 mph    26%
1:00 PM    74°F (23°C)    4 mph    24%
2:00 PM    75°F (24°C)    4 mph    23%
3:00 PM    75°F (24°C)    4 mph    23%
4:00 PM    75°F (24°C)    4 mph    23%
5:00 PM    73°F (23°C)    3 mph    24%
6:00 PM    69°F (21°C)    2 mph    28%
7:00 PM    64°F (18°C)    2 mph    33%
8:00 PM    63°F (17°C)    3 mph    36%
9:00 PM    62°F (17°C)    3 mph    37%
10:00 PM    61°F (16°C)    3 mph    38%
11:00 PM    61°F (16°C)    3 mph    39%
 

The Pinon Hills, California weather pages are a service of WeatherCurrents.
Copyright ©Wed Dec 13 14:47:22 PST 2017  WeatherCurrents. All rights reserved. - Submit questions and comments - Privacy Policy